createdAt,value
2018-12-14T00:00:45.086Z,-2.12
2018-12-14T00:01:53.170Z,-2.16
2018-12-14T00:03:01.205Z,-2.15
2018-12-14T00:04:09.246Z,-2.16
2018-12-14T00:05:17.303Z,-2.18
2018-12-14T00:06:25.342Z,-2.12
2018-12-14T00:07:33.398Z,-2.20
2018-12-14T00:08:41.466Z,-2.16
2018-12-14T00:09:49.507Z,-2.12
2018-12-14T00:10:57.546Z,-2.13
2018-12-14T00:12:05.640Z,-2.10
2018-12-14T00:13:13.656Z,-2.03
2018-12-14T00:14:21.689Z,-2.06
2018-12-14T00:15:29.742Z,-1.97
2018-12-14T00:16:37.821Z,-1.97
2018-12-14T00:17:45.854Z,-1.94
2018-12-14T00:18:53.916Z,-1.97
2018-12-14T00:20:01.963Z,-2.02
2018-12-14T00:21:10.025Z,-1.95
2018-12-14T00:22:18.081Z,-2.09
2018-12-14T00:23:26.111Z,-2.06
2018-12-14T00:24:34.177Z,-2.15
2018-12-14T00:25:42.219Z,-2.03
2018-12-14T00:26:50.305Z,-2.05
2018-12-14T00:27:58.355Z,-2.12
2018-12-14T00:29:06.387Z,-2.16
2018-12-14T00:30:14.436Z,-2.10
2018-12-14T00:31:22.499Z,-2.06
2018-12-14T00:32:30.527Z,-2.10
2018-12-14T00:33:38.581Z,-2.10
2018-12-14T00:34:46.632Z,-2.02
2018-12-14T00:35:54.690Z,-1.95
2018-12-14T00:37:02.752Z,-1.97
2018-12-14T00:38:10.779Z,-1.97
2018-12-14T00:39:18.851Z,-1.98
2018-12-14T00:40:26.902Z,-1.85
2018-12-14T00:41:34.971Z,-1.90
2018-12-14T00:42:43.000Z,-1.98
2018-12-14T00:43:51.035Z,-1.98
2018-12-14T00:44:59.098Z,-1.97
2018-12-14T00:46:07.160Z,-1.97
2018-12-14T00:47:15.225Z,-1.95
2018-12-14T00:48:23.243Z,-1.94
2018-12-14T00:49:31.304Z,-1.97
2018-12-14T00:50:39.361Z,-1.88
2018-12-14T00:51:47.436Z,-2.02
2018-12-14T00:52:55.458Z,-1.95
2018-12-14T00:54:03.513Z,-1.94
2018-12-14T00:55:11.563Z,-1.94
2018-12-14T00:56:19.618Z,-1.95
2018-12-14T00:57:27.747Z,-1.94
2018-12-14T00:58:35.746Z,-1.92
2018-12-14T00:59:43.741Z,-1.92
2018-12-14T01:00:51.837Z,-2.02
2018-12-14T01:01:59.881Z,-1.95
2018-12-14T01:03:07.928Z,-1.88
2018-12-14T01:04:15.962Z,-1.85
2018-12-14T01:05:24.025Z,-1.92
2018-12-14T01:06:32.113Z,-1.82
2018-12-14T01:07:40.156Z,-1.90
2018-12-14T01:08:48.188Z,-2.02
2018-12-14T01:09:56.211Z,-1.92
2018-12-14T01:11:04.281Z,-1.85
2018-12-14T01:12:12.372Z,-1.80
2018-12-14T01:13:20.398Z,-1.87
2018-12-14T01:14:28.438Z,-1.85
2018-12-14T01:15:36.503Z,-1.84
2018-12-14T01:16:44.554Z,-1.90
2018-12-14T01:17:52.613Z,-1.84
2018-12-14T01:19:00.671Z,-1.77
2018-12-14T01:20:08.709Z,-1.92
2018-12-14T01:21:16.752Z,-1.74
2018-12-14T01:22:24.822Z,-1.82
2018-12-14T01:23:32.878Z,-1.85
2018-12-14T01:24:40.922Z,-1.80
2018-12-14T01:25:48.975Z,-1.91
2018-12-14T01:26:57.027Z,-1.92
2018-12-14T01:28:05.056Z,-1.92
2018-12-14T01:29:13.133Z,-1.92
2018-12-14T01:30:21.169Z,-1.97
2018-12-14T01:31:29.240Z,-2.03
2018-12-14T01:32:37.279Z,-1.94
2018-12-14T01:33:45.303Z,-1.94
2018-12-14T01:34:53.384Z,-1.97
2018-12-14T01:36:01.424Z,-1.77
2018-12-14T01:37:09.486Z,-1.87
2018-12-14T01:38:17.534Z,-1.87
2018-12-14T01:39:25.575Z,-1.80
2018-12-14T01:40:33.656Z,-1.95
2018-12-14T01:41:41.701Z,-1.94
2018-12-14T01:42:49.734Z,-1.92
2018-12-14T01:43:57.790Z,-1.98
2018-12-14T01:45:05.813Z,-1.97
2018-12-14T01:46:13.901Z,-1.92
2018-12-14T01:47:21.982Z,-1.97
2018-12-14T01:48:30.010Z,-1.97
2018-12-14T01:49:38.054Z,-1.98
2018-12-14T01:50:46.094Z,-1.87
2018-12-14T01:51:54.143Z,-1.84
2018-12-14T01:53:02.189Z,-1.94
2018-12-14T01:54:10.268Z,-1.92
2018-12-14T01:55:18.322Z,-1.82
2018-12-14T01:56:26.378Z,-1.80
2018-12-14T01:57:34.498Z,-1.79
2018-12-14T01:58:42.480Z,-1.87
2018-12-14T01:59:50.519Z,-1.91
2018-12-14T02:00:58.566Z,-1.77
2018-12-14T02:02:06.633Z,-1.76
2018-12-14T02:03:14.666Z,-1.80
2018-12-14T02:04:22.730Z,-1.77
2018-12-14T02:05:30.771Z,-1.85
2018-12-14T02:06:38.839Z,-1.87
2018-12-14T02:07:46.877Z,-1.87
2018-12-14T02:08:54.944Z,-1.79
2018-12-14T02:10:02.992Z,-1.84
2018-12-14T02:11:11.035Z,-1.79
2018-12-14T02:12:19.115Z,-1.76
2018-12-14T02:13:27.138Z,-1.79
2018-12-14T02:14:35.187Z,-1.70
2018-12-14T02:15:43.247Z,-1.79
2018-12-14T02:16:51.320Z,-1.74
2018-12-14T02:17:59.355Z,-1.76
2018-12-14T02:19:07.402Z,-1.72
2018-12-14T02:20:15.437Z,-1.76
2018-12-14T02:21:23.508Z,-1.72
2018-12-14T02:22:31.560Z,-1.73
2018-12-14T02:23:39.589Z,-1.70
2018-12-14T02:24:47.655Z,-1.62
2018-12-14T02:25:55.724Z,-1.67
2018-12-14T02:27:03.764Z,-1.56
2018-12-14T02:28:11.811Z,-1.58
2018-12-14T02:29:19.866Z,-1.56
2018-12-14T02:30:27.930Z,-1.54
2018-12-14T02:31:35.979Z,-1.67
2018-12-14T02:32:44.015Z,-1.69
2018-12-14T02:33:52.064Z,-1.69
2018-12-14T02:35:00.145Z,-1.54
2018-12-14T02:36:08.181Z,-1.61
2018-12-14T02:37:16.260Z,-1.55
2018-12-14T02:38:24.264Z,-1.56
2018-12-14T02:39:32.363Z,-1.59
2018-12-14T02:40:40.409Z,-1.62
2018-12-14T02:41:48.442Z,-1.55
2018-12-14T02:42:56.504Z,-1.56
2018-12-14T02:44:04.535Z,-1.59
2018-12-14T02:45:12.618Z,-1.61
2018-12-14T02:46:20.644Z,-1.55
2018-12-14T02:47:28.715Z,-1.58
2018-12-14T02:48:36.738Z,-1.59
2018-12-14T02:49:44.852Z,-1.66
2018-12-14T02:50:52.859Z,-1.56
2018-12-14T02:52:00.890Z,-1.56
2018-12-14T02:53:08.959Z,-1.54
2018-12-14T02:54:17.015Z,-1.54
2018-12-14T02:55:25.047Z,-1.54
2018-12-14T02:56:33.103Z,-1.52
2018-12-14T02:57:41.154Z,-1.49
2018-12-14T02:58:49.225Z,-1.54
2018-12-14T02:59:57.283Z,-1.49
2018-12-14T03:01:05.295Z,-1.52
2018-12-14T03:02:13.402Z,-1.55
2018-12-14T03:03:21.442Z,-1.46
2018-12-14T03:04:29.505Z,-1.55
2018-12-14T03:05:37.562Z,-1.48
2018-12-14T03:06:45.573Z,-1.51
2018-12-14T03:07:53.629Z,-1.46
2018-12-14T03:09:01.706Z,-1.46
2018-12-14T03:10:09.758Z,-1.34
2018-12-14T03:11:17.806Z,-1.41
2018-12-14T03:12:26.769Z,-1.43
2018-12-14T03:13:33.909Z,-1.37
2018-12-14T03:14:41.958Z,-1.37
2018-12-14T03:15:49.997Z,-1.38
2018-12-14T03:16:58.053Z,-1.35
2018-12-14T03:18:06.124Z,-1.54
2018-12-14T03:19:14.154Z,-1.40
2018-12-14T03:20:22.238Z,-1.48
2018-12-14T03:21:30.302Z,-1.41
2018-12-14T03:22:38.312Z,-1.52
2018-12-14T03:23:46.377Z,-1.56
2018-12-14T03:24:54.418Z,-1.69
2018-12-14T03:26:02.496Z,-1.62
2018-12-14T03:27:10.614Z,-1.67
2018-12-14T03:28:18.588Z,-1.61
2018-12-14T03:29:26.639Z,-1.72
2018-12-14T03:30:34.706Z,-1.67
2018-12-14T03:31:42.747Z,-1.74
2018-12-14T03:32:50.805Z,-1.77
2018-12-14T03:33:58.837Z,-1.67
2018-12-14T03:35:06.916Z,-1.70
2018-12-14T03:36:14.946Z,-1.66
2018-12-14T03:37:23.005Z,-1.76
2018-12-14T03:38:31.048Z,-1.79
2018-12-14T03:39:39.099Z,-1.73
2018-12-14T03:40:47.157Z,-1.72
2018-12-14T03:41:55.186Z,-1.66
2018-12-14T03:43:03.258Z,-1.80
2018-12-14T03:44:11.334Z,-1.76
2018-12-14T03:45:19.349Z,-1.67
2018-12-14T03:46:27.415Z,-1.73
2018-12-14T03:47:35.462Z,-1.73
2018-12-14T03:48:43.526Z,-1.80
2018-12-14T03:49:51.593Z,-1.62
2018-12-14T03:50:59.613Z,-1.61
2018-12-14T03:52:07.678Z,-1.61
2018-12-14T03:53:15.711Z,-1.77
2018-12-14T03:54:23.779Z,-1.80
2018-12-14T03:55:31.848Z,-1.79
2018-12-14T03:56:39.914Z,-1.80
2018-12-14T03:57:47.934Z,-1.72
2018-12-14T03:58:55.977Z,-1.73
2018-12-14T04:00:04.026Z,-1.73
2018-12-14T04:01:12.086Z,-1.77
2018-12-14T04:02:20.154Z,-1.79
2018-12-14T04:03:28.201Z,-1.80
2018-12-14T04:04:36.229Z,-1.74
2018-12-14T04:05:44.298Z,-1.74
2018-12-14T04:06:52.340Z,-1.69
2018-12-14T04:08:00.441Z,-1.74
2018-12-14T04:09:08.455Z,-1.74
2018-12-14T04:10:16.514Z,-1.73
2018-12-14T04:11:24.562Z,-1.85
2018-12-14T04:12:32.606Z,-2.00
2018-12-14T04:13:40.678Z,-1.97
2018-12-14T04:14:48.704Z,-1.88
2018-12-14T04:15:56.767Z,-1.90
2018-12-14T04:17:04.809Z,-1.88
2018-12-14T04:18:12.874Z,-1.87
2018-12-14T04:19:20.921Z,-1.94
2018-12-14T04:20:28.966Z,-1.97
2018-12-14T04:21:37.021Z,-2.00
2018-12-14T04:22:45.057Z,-1.94
2018-12-14T04:23:53.119Z,-1.97
2018-12-14T04:25:01.172Z,-1.94
2018-12-14T04:26:09.235Z,-1.88
2018-12-14T04:27:17.295Z,-1.97
2018-12-14T04:28:25.324Z,-1.91
2018-12-14T04:29:33.385Z,-1.98
2018-12-14T04:30:41.450Z,-2.02
2018-12-14T04:31:49.494Z,-1.98
2018-12-14T04:32:57.524Z,-2.05
2018-12-14T04:34:05.592Z,-1.98
2018-12-14T04:35:13.667Z,-1.95
2018-12-14T04:36:21.720Z,-1.97
2018-12-14T04:37:29.752Z,-1.94
2018-12-14T04:38:37.807Z,-2.03
2018-12-14T04:39:45.861Z,-2.16
2018-12-14T04:40:53.911Z,-2.21
2018-12-14T04:42:01.977Z,-2.20
2018-12-14T04:43:10.019Z,-2.13
2018-12-14T04:44:18.071Z,-2.12
2018-12-14T04:45:26.111Z,-2.06
2018-12-14T04:46:34.160Z,-2.08
2018-12-14T04:47:42.226Z,-2.00
2018-12-14T04:48:50.311Z,-2.00
2018-12-14T04:49:58.366Z,-2.15
2018-12-14T04:51:06.391Z,-2.20
2018-12-14T04:52:14.458Z,-2.23
2018-12-14T04:53:22.491Z,-2.26
2018-12-14T04:54:30.524Z,-2.16
2018-12-14T04:55:38.624Z,-2.23
2018-12-14T04:56:46.629Z,-2.20
2018-12-14T04:57:54.704Z,-2.18
2018-12-14T04:59:02.740Z,-2.18
2018-12-14T05:00:10.818Z,-2.26
2018-12-14T05:01:18.857Z,-2.15
2018-12-14T05:02:26.894Z,-2.13
2018-12-14T05:03:34.912Z,-2.23
2018-12-14T05:04:43.003Z,-2.15
2018-12-14T05:05:51.054Z,-2.21
2018-12-14T05:06:59.093Z,-2.29
2018-12-14T05:08:07.137Z,-2.32
2018-12-14T05:09:15.197Z,-2.32
2018-12-14T05:10:23.262Z,-2.34
2018-12-14T05:11:31.299Z,-2.26
2018-12-14T05:12:39.359Z,-2.23
2018-12-14T05:13:47.413Z,-2.26
2018-12-14T05:14:55.455Z,-2.39
2018-12-14T05:16:03.517Z,-2.32
2018-12-14T05:17:11.567Z,-2.24
2018-12-14T05:18:19.621Z,-2.27
2018-12-14T05:19:27.677Z,-2.34
2018-12-14T05:20:35.684Z,-2.29
2018-12-14T05:21:43.796Z,-2.24
2018-12-14T05:22:51.811Z,-2.32
2018-12-14T05:23:59.876Z,-2.13
2018-12-14T05:25:07.916Z,-2.24
2018-12-14T05:26:15.944Z,-2.10
2018-12-14T05:27:24.015Z,-2.18
2018-12-14T05:28:32.067Z,-2.18
2018-12-14T05:29:40.128Z,-2.23
2018-12-14T05:30:48.197Z,-2.24
2018-12-14T05:31:56.234Z,-2.26
2018-12-14T05:33:04.267Z,-2.23
2018-12-14T05:34:12.337Z,-2.23
2018-12-14T05:35:20.392Z,-2.16
2018-12-14T05:36:28.417Z,-2.18
2018-12-14T05:37:36.505Z,-2.24
2018-12-14T05:38:44.533Z,-2.23
2018-12-14T05:39:52.592Z,-2.23
2018-12-14T05:41:00.650Z,-2.34
2018-12-14T05:42:08.690Z,-2.27
2018-12-14T05:43:16.782Z,-2.24
2018-12-14T05:44:25.213Z,-2.18
2018-12-14T05:45:32.856Z,-2.27
2018-12-14T05:46:40.903Z,-2.13
2018-12-14T05:47:48.957Z,-2.24
2018-12-14T05:48:57.328Z,-2.12
2018-12-14T05:50:05.050Z,-2.18
2018-12-14T05:51:13.114Z,-2.15
2018-12-14T05:52:21.174Z,-2.26
2018-12-14T05:53:29.209Z,-2.30
2018-12-14T05:54:37.282Z,-2.23
2018-12-14T05:55:45.323Z,-2.26
2018-12-14T05:56:53.379Z,-2.18
2018-12-14T05:58:01.429Z,-2.18
2018-12-14T05:59:09.480Z,-2.21
2018-12-14T06:00:17.515Z,-2.21
2018-12-14T06:01:25.592Z,-2.35
2018-12-14T06:02:33.656Z,-2.35
2018-12-14T06:03:41.663Z,-2.23
2018-12-14T06:04:49.733Z,-2.27
2018-12-14T06:05:57.778Z,-2.24
2018-12-14T06:07:06.471Z,-2.23
2018-12-14T06:08:13.883Z,-2.32
2018-12-14T06:09:21.955Z,-2.21
2018-12-14T06:10:29.990Z,-2.23
2018-12-14T06:11:38.044Z,-2.35
2018-12-14T06:12:46.097Z,-2.32
2018-12-14T06:13:54.158Z,-2.29
2018-12-14T06:15:02.191Z,-2.30
2018-12-14T06:16:10.247Z,-2.23
2018-12-14T06:17:18.302Z,-2.21
2018-12-14T06:18:26.356Z,-2.30
2018-12-14T06:19:34.415Z,-2.21
2018-12-14T06:20:42.977Z,-2.26
2018-12-14T06:21:50.524Z,-2.23
2018-12-14T06:22:58.568Z,-2.21
2018-12-14T06:24:06.606Z,-2.23
2018-12-14T06:25:14.649Z,-2.27
2018-12-14T06:26:22.710Z,-2.21
2018-12-14T06:27:30.767Z,-2.27
2018-12-14T06:28:38.807Z,-2.13
2018-12-14T06:29:47.116Z,-2.15
2018-12-14T06:30:54.986Z,-2.23
2018-12-14T06:32:03.531Z,-2.26
2018-12-14T06:33:11.015Z,-2.21
2018-12-14T06:34:19.056Z,-2.20
2018-12-14T06:35:27.139Z,-2.12
2018-12-14T06:36:35.152Z,-2.12
2018-12-14T06:37:43.228Z,-2.10
2018-12-14T06:38:51.275Z,-2.09
2018-12-14T06:39:59.321Z,-2.13
2018-12-14T06:41:07.380Z,-2.06
2018-12-14T06:42:15.420Z,-2.13
2018-12-14T06:43:23.517Z,-2.13
2018-12-14T06:44:32.168Z,-2.08
2018-12-14T06:45:39.561Z,-2.05
2018-12-14T06:46:47.657Z,-2.12
2018-12-14T06:47:55.688Z,-2.09
2018-12-14T06:49:03.738Z,-2.02
2018-12-14T06:50:11.795Z,-1.98
2018-12-14T06:51:19.851Z,-2.13
2018-12-14T06:52:27.970Z,-2.08
2018-12-14T06:53:35.985Z,-1.98
2018-12-14T06:54:44.020Z,-2.02
2018-12-14T06:55:52.039Z,-1.97
2018-12-14T06:57:00.092Z,-1.98
2018-12-14T06:58:08.930Z,-2.02
2018-12-14T06:59:16.275Z,-2.02
2018-12-14T07:00:24.235Z,-2.05
2018-12-14T07:01:32.980Z,-1.94
2018-12-14T07:02:40.367Z,-1.91
2018-12-14T07:03:48.421Z,-1.92
2018-12-14T07:04:56.838Z,-1.97
2018-12-14T07:06:04.522Z,-1.94
2018-12-14T07:07:12.776Z,-1.97
2018-12-14T07:08:20.621Z,-2.02
2018-12-14T07:09:29.483Z,-1.92
2018-12-14T07:10:36.721Z,-1.79
2018-12-14T07:11:44.771Z,-1.85
2018-12-14T07:12:52.840Z,-1.90
2018-12-14T07:14:01.087Z,-1.97
2018-12-14T07:15:08.917Z,-1.88
2018-12-14T07:16:16.995Z,-1.79
2018-12-14T07:17:25.043Z,-2.00
2018-12-14T07:18:33.086Z,-2.03
2018-12-14T07:19:41.151Z,-1.95
2018-12-14T07:20:49.199Z,-1.94
2018-12-14T07:21:57.247Z,-1.95
2018-12-14T07:23:05.284Z,-1.94
2018-12-14T07:24:14.104Z,-1.90
2018-12-14T07:25:21.393Z,-1.92
2018-12-14T07:26:29.449Z,-1.92
2018-12-14T07:27:37.521Z,-1.95
2018-12-14T07:28:45.551Z,-1.91
2018-12-14T07:29:53.612Z,-1.85
2018-12-14T07:31:01.659Z,-1.90
2018-12-14T07:32:09.718Z,-1.98
2018-12-14T07:33:17.761Z,-1.88
2018-12-14T07:34:25.792Z,-1.85
2018-12-14T07:35:33.861Z,-1.92
2018-12-14T07:36:41.905Z,-1.88
2018-12-14T07:37:49.951Z,-1.85
2018-12-14T07:38:58.523Z,-1.82
2018-12-14T07:40:06.053Z,-1.85
2018-12-14T07:41:14.115Z,-1.76
2018-12-14T07:42:22.160Z,-1.77
2018-12-14T07:43:30.237Z,-1.88
2018-12-14T07:44:38.323Z,-1.97
2018-12-14T07:45:46.333Z,-1.87
2018-12-14T07:46:54.389Z,-1.94
2018-12-14T07:48:02.446Z,-1.82
2018-12-14T07:49:10.487Z,-1.84
2018-12-14T07:50:19.017Z,-1.90
2018-12-14T07:51:26.937Z,-1.77
2018-12-14T07:52:34.893Z,-1.80
2018-12-14T07:53:44.467Z,-1.80
2018-12-14T07:54:51.066Z,-1.80
2018-12-14T07:55:59.060Z,-1.74
2018-12-14T07:57:07.404Z,-1.74
2018-12-14T07:58:14.907Z,-1.77
2018-12-14T07:59:22.954Z,-1.77
2018-12-14T08:00:31.005Z,-1.70
2018-12-14T08:01:39.054Z,-1.64
2018-12-14T08:02:47.113Z,-1.70
2018-12-14T08:03:55.152Z,-1.74
2018-12-14T08:05:03.218Z,-1.76
2018-12-14T08:06:11.272Z,-1.79
2018-12-14T08:07:19.308Z,-1.73
2018-12-14T08:08:27.351Z,-1.82
2018-12-14T08:09:35.407Z,-1.79
2018-12-14T08:10:43.464Z,-1.79
2018-12-14T08:11:51.521Z,-1.72
2018-12-14T08:12:59.576Z,-1.74
2018-12-14T08:14:07.640Z,-1.77
2018-12-14T08:15:15.675Z,-1.77
2018-12-14T08:16:23.737Z,-1.76
2018-12-14T08:17:31.786Z,-1.77
2018-12-14T08:18:39.861Z,-1.74
2018-12-14T08:19:47.888Z,-1.79
2018-12-14T08:20:55.955Z,-1.76
2018-12-14T08:22:04.002Z,-1.73
2018-12-14T08:23:12.182Z,-1.74
2018-12-14T08:24:20.374Z,-1.70
2018-12-14T08:25:28.174Z,-1.74
2018-12-14T08:26:36.189Z,-1.73
2018-12-14T08:27:44.802Z,-1.73
2018-12-14T08:28:52.856Z,-1.82
2018-12-14T08:30:01.072Z,-1.73
2018-12-14T08:31:08.862Z,-1.77
2018-12-14T08:32:17.035Z,-1.79
2018-12-14T08:33:24.515Z,-1.85
2018-12-14T08:34:32.560Z,-1.84
2018-12-14T08:35:40.633Z,-1.84
2018-12-14T08:36:48.701Z,-1.77
2018-12-14T08:37:56.734Z,-1.74
2018-12-14T08:39:04.759Z,-1.59
2018-12-14T08:40:12.814Z,-1.69
2018-12-14T08:41:20.878Z,-1.77
2018-12-14T08:42:28.934Z,-1.67
2018-12-14T08:43:41.326Z,-1.79
2018-12-14T08:44:45.007Z,-1.79
2018-12-14T08:45:53.098Z,-1.77
2018-12-14T08:47:01.133Z,-1.82
2018-12-14T08:48:09.737Z,-1.80
2018-12-14T08:49:17.246Z,-1.74
2018-12-14T08:50:25.946Z,-1.77
2018-12-14T08:51:33.340Z,-1.70
2018-12-14T08:52:41.436Z,-1.66
2018-12-14T08:53:49.448Z,-1.58
2018-12-14T08:54:57.527Z,-1.55
2018-12-14T08:56:05.981Z,-1.41
2018-12-14T08:57:13.740Z,-1.40
2018-12-14T08:58:21.657Z,-1.34
2018-12-14T08:59:29.707Z,-1.54
2018-12-14T09:00:37.875Z,-1.59
2018-12-14T09:01:45.820Z,-1.54
2018-12-14T09:02:53.887Z,-1.54
2018-12-14T09:04:01.941Z,-1.45
2018-12-14T09:05:09.988Z,-1.45
2018-12-14T09:06:18.034Z,-1.51
2018-12-14T09:07:26.082Z,-1.41
2018-12-14T09:08:34.188Z,-1.34
2018-12-14T09:09:42.199Z,-1.41
2018-12-14T09:10:50.232Z,-1.41
2018-12-14T09:11:58.301Z,-1.35
2018-12-14T09:13:06.349Z,-1.43
2018-12-14T09:14:14.414Z,-1.31
2018-12-14T09:15:22.451Z,-1.33
2018-12-14T09:16:30.499Z,-1.35
2018-12-14T09:17:38.548Z,-1.40
2018-12-14T09:18:46.617Z,-1.28
2018-12-14T09:19:54.669Z,-1.25
2018-12-14T09:21:02.722Z,-1.27
2018-12-14T09:22:10.789Z,-1.35
2018-12-14T09:23:18.823Z,-1.35
2018-12-14T09:24:26.877Z,-1.31
2018-12-14T09:25:34.913Z,-1.35
2018-12-14T09:26:42.973Z,-1.35
2018-12-14T09:27:51.032Z,-1.46
2018-12-14T09:28:59.082Z,-1.41
2018-12-14T09:30:07.123Z,-1.45
2018-12-14T09:31:15.172Z,-1.40
2018-12-14T09:32:23.255Z,-1.31
2018-12-14T09:33:31.277Z,-1.31
2018-12-14T09:34:39.338Z,-1.15
2018-12-14T09:35:47.413Z,-1.13
2018-12-14T09:36:55.458Z,-1.07
2018-12-14T09:38:03.503Z,-1.04
2018-12-14T09:39:11.552Z,-1.05
2018-12-14T09:40:19.598Z,-0.99
2018-12-14T09:41:27.672Z,-0.92
2018-12-14T09:42:35.742Z,-0.91
2018-12-14T09:43:43.763Z,-0.86
2018-12-14T09:44:51.816Z,-0.94
2018-12-14T09:45:59.875Z,-0.92
2018-12-14T09:47:07.922Z,-0.91
2018-12-14T09:48:15.975Z,-0.91
2018-12-14T09:49:24.011Z,-0.83
2018-12-14T09:50:32.080Z,-0.92
2018-12-14T09:51:40.143Z,-1.01
2018-12-14T09:52:48.195Z,-1.01
2018-12-14T09:53:56.249Z,-0.94
2018-12-14T09:55:04.298Z,-0.98
2018-12-14T09:56:12.353Z,-0.95
2018-12-14T09:57:20.408Z,-1.01
2018-12-14T09:58:28.453Z,-1.07
2018-12-14T09:59:36.508Z,-1.05
2018-12-14T10:00:44.561Z,-1.22
2018-12-14T10:01:52.621Z,-1.22
2018-12-14T10:03:00.662Z,-1.13
2018-12-14T10:04:08.725Z,-1.15
2018-12-14T10:05:16.777Z,-1.05
2018-12-14T10:06:24.833Z,-1.13
2018-12-14T10:07:32.881Z,-1.28
2018-12-14T10:08:40.934Z,-1.28
2018-12-14T10:09:49.047Z,-1.20
2018-12-14T10:10:57.048Z,-1.31
2018-12-14T10:12:05.110Z,-1.27
2018-12-14T10:13:13.145Z,-1.34
2018-12-14T10:14:21.206Z,-1.30
2018-12-14T10:15:29.421Z,-1.31
2018-12-14T10:16:37.303Z,-1.20
2018-12-14T10:17:45.389Z,-1.10
2018-12-14T10:18:53.395Z,-1.09
2018-12-14T10:20:01.471Z,-1.04
2018-12-14T10:21:09.512Z,-1.01
2018-12-14T10:22:17.543Z,-1.04
2018-12-14T10:23:25.639Z,-1.25
2018-12-14T10:24:33.691Z,-1.35
2018-12-14T10:25:42.392Z,-1.34
2018-12-14T10:26:49.795Z,-1.23
2018-12-14T10:27:57.952Z,-1.22
2018-12-14T10:29:06.116Z,-1.13
2018-12-14T10:30:13.956Z,-1.02
2018-12-14T10:31:21.988Z,-1.09
2018-12-14T10:32:30.038Z,-1.01
2018-12-14T10:33:38.089Z,-1.05
2018-12-14T10:34:46.162Z,-0.97
2018-12-14T10:35:54.278Z,-0.97
2018-12-14T10:37:02.259Z,-0.99
2018-12-14T10:38:10.319Z,-1.02
2018-12-14T10:39:18.357Z,-1.09
2018-12-14T10:40:26.428Z,-1.19
2018-12-14T10:41:34.503Z,-1.04
2018-12-14T10:42:42.546Z,-1.07
2018-12-14T10:43:50.578Z,-1.05
2018-12-14T10:44:58.643Z,-1.13
2018-12-14T10:46:06.717Z,-1.16
2018-12-14T10:47:14.758Z,-1.01
2018-12-14T10:48:22.765Z,-0.99
2018-12-14T10:49:30.845Z,-0.97
2018-12-14T10:50:39.813Z,-1.05
2018-12-14T10:51:46.959Z,-1.10
2018-12-14T10:52:54.998Z,-1.10
2018-12-14T10:54:03.148Z,-1.13
2018-12-14T10:55:11.118Z,-1.25
2018-12-14T10:56:19.165Z,-1.22
2018-12-14T10:57:27.211Z,-1.13
2018-12-14T10:58:35.374Z,-1.02
2018-12-14T10:59:43.326Z,-1.01
2018-12-14T11:00:51.384Z,-1.01
2018-12-14T11:01:59.439Z,-1.01
2018-12-14T11:03:07.511Z,-1.10
2018-12-14T11:04:15.546Z,-0.97
2018-12-14T11:05:23.597Z,-1.05
2018-12-14T11:06:31.652Z,-1.09
2018-12-14T11:07:39.698Z,-1.10
2018-12-14T11:08:47.747Z,-0.95
2018-12-14T11:09:55.781Z,-1.04
2018-12-14T11:11:03.858Z,-1.05
2018-12-14T11:12:11.909Z,-0.98
2018-12-14T11:13:19.962Z,-1.23
2018-12-14T11:14:28.005Z,-1.13
2018-12-14T11:15:36.048Z,-0.99
2018-12-14T11:16:44.119Z,-1.12
2018-12-14T11:17:52.722Z,-1.23
2018-12-14T11:19:00.240Z,-1.31
2018-12-14T11:20:08.693Z,-1.19
2018-12-14T11:21:17.453Z,-1.30
2018-12-14T11:22:24.391Z,-1.25
2018-12-14T11:23:32.484Z,-1.30
2018-12-14T11:24:40.516Z,-1.25
2018-12-14T11:25:48.544Z,-1.07
2018-12-14T11:26:56.619Z,-1.12
2018-12-14T11:28:04.643Z,-1.01
2018-12-14T11:29:12.726Z,-0.97
2018-12-14T11:30:21.398Z,-0.99
2018-12-14T11:31:28.799Z,-0.95
2018-12-14T11:32:36.918Z,-0.98
2018-12-14T11:33:44.924Z,-1.09
2018-12-14T11:34:52.995Z,-1.02
2018-12-14T11:36:01.022Z,-1.30
2018-12-14T11:37:09.066Z,-1.12
2018-12-14T11:38:17.141Z,-1.10
2018-12-14T11:39:25.163Z,-1.10
2018-12-14T11:40:33.221Z,-1.17
2018-12-14T11:41:41.318Z,-1.16
2018-12-14T11:42:49.341Z,-1.01
2018-12-14T11:43:57.402Z,-1.12
2018-12-14T11:45:05.447Z,-1.17
2018-12-14T11:46:13.515Z,-1.40
2018-12-14T11:47:21.542Z,-1.34
2018-12-14T11:48:29.644Z,-1.40
2018-12-14T11:49:37.662Z,-1.35
2018-12-14T11:50:45.746Z,-1.38
2018-12-14T11:51:53.763Z,-1.20
2018-12-14T11:53:01.854Z,-1.23
2018-12-14T11:54:09.881Z,-1.12
2018-12-14T11:55:17.953Z,-1.12
2018-12-14T11:56:25.986Z,-1.10
2018-12-14T11:57:34.043Z,-1.05
2018-12-14T11:58:42.114Z,-1.10
2018-12-14T11:59:50.162Z,-1.05
2018-12-14T12:00:58.204Z,-0.94
2018-12-14T12:02:06.265Z,-1.01
2018-12-14T12:03:14.325Z,-1.01
2018-12-14T12:04:22.400Z,-0.98
2018-12-14T12:05:30.415Z,-0.99
2018-12-14T12:06:38.464Z,-1.02
2018-12-14T12:07:46.527Z,-1.01
2018-12-14T12:08:54.583Z,-0.97
2018-12-14T12:10:02.647Z,-1.07
2018-12-14T12:11:10.712Z,-1.04
2018-12-14T12:12:18.739Z,-1.01
2018-12-14T12:13:26.790Z,-0.92
2018-12-14T12:14:34.851Z,-1.04
2018-12-14T12:15:43.118Z,-1.02
2018-12-14T12:16:50.957Z,-1.10
2018-12-14T12:17:59.012Z,-1.05
2018-12-14T12:19:07.071Z,-1.01
2018-12-14T12:20:15.071Z,-1.13
2018-12-14T12:21:23.164Z,-1.05
2018-12-14T12:22:31.214Z,-1.04
2018-12-14T12:23:39.276Z,-0.98
2018-12-14T12:24:47.328Z,-0.89
2018-12-14T12:25:55.357Z,-0.76
2018-12-14T12:27:03.434Z,-0.67
2018-12-14T12:28:11.795Z,-0.73
2018-12-14T12:29:19.559Z,-0.85
2018-12-14T12:30:27.573Z,-0.80
2018-12-14T12:31:35.640Z,-0.83
2018-12-14T12:32:43.683Z,-0.92
2018-12-14T12:33:51.761Z,-0.99
2018-12-14T12:34:59.811Z,-1.02
2018-12-14T12:36:07.850Z,-1.02
2018-12-14T12:37:15.914Z,-0.98
2018-12-14T12:38:24.120Z,-1.23
2018-12-14T12:39:32.026Z,-1.19
2018-12-14T12:40:40.079Z,-1.02
2018-12-14T12:41:48.170Z,-0.95
2018-12-14T12:42:56.188Z,-0.97
2018-12-14T12:44:04.228Z,-0.97
2018-12-14T12:45:12.486Z,-1.05
2018-12-14T12:46:20.490Z,-1.01
2018-12-14T12:47:28.446Z,-1.01
2018-12-14T12:48:36.456Z,-0.92
2018-12-14T12:49:44.497Z,-0.92
2018-12-14T12:50:52.676Z,-0.83
2018-12-14T12:52:00.738Z,-0.82
2018-12-14T12:53:08.659Z,-0.75
2018-12-14T12:54:16.720Z,-0.79
2018-12-14T12:55:24.754Z,-0.75
2018-12-14T12:56:32.824Z,-0.73
2018-12-14T12:57:40.895Z,-0.89
2018-12-14T12:58:48.931Z,-0.92
2018-12-14T12:59:56.965Z,-0.94
2018-12-14T13:01:05.048Z,-0.91
2018-12-14T13:02:13.094Z,-0.78
2018-12-14T13:03:21.136Z,-0.82
2018-12-14T13:04:29.210Z,-0.79
2018-12-14T13:05:37.219Z,-0.80
2018-12-14T13:06:45.292Z,-0.73
2018-12-14T13:07:53.355Z,-0.72
2018-12-14T13:09:01.439Z,-0.69
2018-12-14T13:10:09.465Z,-0.61
2018-12-14T13:11:17.536Z,-0.51
2018-12-14T13:12:25.549Z,-0.72
2018-12-14T13:13:33.599Z,-1.10
2018-12-14T13:14:41.681Z,-1.16
2018-12-14T13:15:49.734Z,-1.12
2018-12-14T13:16:57.758Z,-1.10
2018-12-14T13:18:05.831Z,-1.12
2018-12-14T13:19:13.890Z,-1.17
2018-12-14T13:20:21.944Z,-1.16
2018-12-14T13:21:29.988Z,-1.02
2018-12-14T13:22:38.037Z,-1.02
2018-12-14T13:23:46.103Z,-1.01
2018-12-14T13:24:54.147Z,-0.97
2018-12-14T13:26:02.197Z,-0.99
2018-12-14T13:27:10.253Z,-1.01
2018-12-14T13:28:18.312Z,-1.02
2018-12-14T13:29:26.383Z,-1.04
2018-12-14T13:30:34.413Z,-0.95
2018-12-14T13:31:42.460Z,-0.99
2018-12-14T13:32:50.529Z,-0.99
2018-12-14T13:33:58.616Z,-1.02
2018-12-14T13:35:06.640Z,-1.10
2018-12-14T13:36:14.688Z,-1.22
2018-12-14T13:37:22.730Z,-1.15
2018-12-14T13:38:30.791Z,-1.16
2018-12-14T13:39:38.848Z,-1.13
2018-12-14T13:40:46.899Z,-1.33
2018-12-14T13:41:54.947Z,-1.37
2018-12-14T13:43:05.273Z,-1.23
2018-12-14T13:44:11.060Z,-1.30
2018-12-14T13:45:19.127Z,-1.20
2018-12-14T13:46:27.170Z,-1.35
2018-12-14T13:47:35.226Z,-1.34
2018-12-14T13:48:43.291Z,-1.34
2018-12-14T13:49:51.335Z,-1.30
2018-12-14T13:50:59.381Z,-1.31
2018-12-14T13:52:07.422Z,-1.25
2018-12-14T13:53:15.503Z,-1.10
2018-12-14T13:54:23.523Z,-1.15
2018-12-14T13:55:31.568Z,-1.09
2018-12-14T13:56:39.623Z,-1.07
2018-12-14T13:57:47.778Z,-1.04
2018-12-14T13:58:55.729Z,-0.97
2018-12-14T14:00:03.763Z,-1.02
2018-12-14T14:01:11.842Z,-1.02
2018-12-14T14:02:19.902Z,-1.04
2018-12-14T14:03:27.951Z,-1.07
2018-12-14T14:04:36.025Z,-0.97
2018-12-14T14:05:44.071Z,-1.04
2018-12-14T14:06:52.086Z,-1.04
2018-12-14T14:08:00.174Z,-1.07
2018-12-14T14:09:08.202Z,-1.20
2018-12-14T14:10:16.250Z,-1.25
2018-12-14T14:11:24.303Z,-1.22
2018-12-14T14:12:32.388Z,-1.19
2018-12-14T14:13:40.465Z,-1.20
2018-12-14T14:14:52.949Z,-1.23
2018-12-14T14:15:56.525Z,-1.15
2018-12-14T14:17:04.616Z,-1.19
2018-12-14T14:18:12.641Z,-1.34
2018-12-14T14:19:20.701Z,-1.45
2018-12-14T14:20:28.752Z,-1.35
2018-12-14T14:21:36.823Z,-1.33
2018-12-14T14:22:44.854Z,-1.35
2018-12-14T14:23:52.904Z,-1.35
2018-12-14T14:25:00.960Z,-1.33
2018-12-14T14:26:09.036Z,-1.40
2018-12-14T14:27:17.061Z,-1.20
2018-12-14T14:28:25.105Z,-1.25
2018-12-14T14:29:33.175Z,-1.16
2018-12-14T14:30:41.230Z,-1.07
2018-12-14T14:31:49.269Z,-1.02
2018-12-14T14:32:57.322Z,-1.07
2018-12-14T14:34:05.339Z,-1.23
2018-12-14T14:35:13.418Z,-1.27
2018-12-14T14:36:21.498Z,-1.19